Aviation Digital Data Service (ADDS)

Output produced by METARs form (0353 UTC 26 June 2019)
found at http://www.aviationweather.gov/metar/data/
 
Forecast for: KLBB (LUBBOCK , TX, US)
Text: KLBB 260324Z 2603/2624 06011KT P6SM TS SCT050CB SCT250
Forecast period: 0300 to 0500 UTC 26 June 2019
Forecast type: FROM: standard forecast or significant change
Winds: from the ENE (60 degrees) at 13 MPH (11 knots; 5.7 m/s)
Visibility: 6 or more miles 10+ km)
Ceiling: at least 12,000 feet AGL
Clouds: scattered clouds at 5000 feet AGL
scattered clouds at 25000 feet AGL
Weather: TS  (thunderstorm)
Text: TEMPO 2603/2605 06015G25KT 5SM -TSRA BKN050CB
Forecast period: 0300 to 0500 UTC 26 June 2019
Forecast type: TEMPORARY: The following changes expected for less than half the time period
Winds: from the ENE (60 degrees) at 17 MPH (15 knots; 7.7 m/s)
gusting to 29 MPH (25 knots; 12.9 m/s)
Visibility: 5 miles (8 km)
Ceiling: 5000 feet AGL
Clouds: broken clouds at 5000 feet AGL
Weather: -TSRA  (light rain associated with thunderstorm(s))
Text: FM260500 15011KT P6SM SCT250
Forecast period: 0500 UTC 26 June 2019 to 0000 UTC 27 June 2019
Forecast type: FROM: standard forecast or significant change
Winds: from the SSE (150 degrees) at 13 MPH (11 knots; 5.7 m/s)
Visibility: 6 or more miles 10+ km)
Ceiling: at least 12,000 feet AGL
Clouds: scattered clouds at 25000 feet AGL
Weather: no significant weather forecast for this period